Time;durP1;ratioP1;P1;durP2;ratioP2;P2;SDS_P1;SDS_P2;PMS_P1;PMS_P2;Temp;Humidity;BMP_temperature;BMP_pressure;BME280_temperature;BME280_humidity;BME280_pressure;Samples;Min_cycle;Max_cycle;Signal;HPM_P1;HPM_P2
2021/05/14 00:02:03;;;;;;;38.70;21.80;;;13.70;99.90;;;;;;5072822;28;20036;-75
2021/05/14 00:04:29;;;;;;;39.08;22.35;;;13.60;99.90;;;;;;5077188;28;20164;-75
2021/05/14 00:06:55;;;;;;;43.10;24.98;;;13.60;99.90;;;;;;5092972;28;20381;-75
2021/05/14 00:09:21;;;;;;;38.28;21.23;;;13.60;99.90;;;;;;5092981;28;20031;-75
2021/05/14 00:11:46;;;;;;;38.10;23.00;;;13.50;99.90;;;;;;5093148;28;20032;-75
2021/05/14 00:14:14;;;;;;;35.72;20.83;;;13.50;99.90;;;;;;5092879;28;20470;-75
2021/05/14 00:16:39;;;;;;;37.20;22.23;;;13.50;99.90;;;;;;5092810;28;20470;-75
2021/05/14 00:19:06;;;;;;;36.38;22.00;;;13.50;99.90;;;;;;5092832;28;20024;-75
2021/05/14 00:21:33;;;;;;;42.40;23.08;;;13.40;99.90;;;;;;5092841;28;20647;-76
2021/05/14 00:23:59;;;;;;;38.33;22.33;;;13.50;99.90;;;;;;5092751;28;20559;-75
2021/05/14 00:26:25;;;;;;;34.10;22.75;;;13.50;99.90;;;;;;5092764;28;20025;-75
2021/05/14 00:28:51;;;;;;;34.20;22.63;;;13.50;99.90;;;;;;5092702;28;20078;-75
2021/05/14 00:31:17;;;;;;;35.85;22.38;;;13.50;99.90;;;;;;5092680;28;20036;-75
2021/05/14 00:33:43;;;;;;;31.70;20.65;;;13.50;99.90;;;;;;5092666;28;20454;-76
2021/05/14 00:36:09;;;;;;;35.38;22.15;;;13.50;99.90;;;;;;5091421;28;20439;-75
2021/05/14 00:38:36;;;;;;;37.20;22.77;;;13.50;99.90;;;;;;5091386;28;20024;-75
2021/05/14 00:41:03;;;;;;;34.05;20.27;;;13.50;99.90;;;;;;5092691;28;20059;-76
2021/05/14 00:43:28;;;;;;;38.38;21.85;;;13.50;99.90;;;;;;5092591;28;20028;-76
2021/05/14 00:45:54;;;;;;;29.85;19.85;;;13.50;99.90;;;;;;5092629;28;20393;-76
2021/05/14 00:48:20;;;;;;;36.00;20.92;;;13.50;99.90;;;;;;5091302;28;20039;-76
2021/05/14 00:50:45;;;;;;;34.72;21.20;;;13.40;99.90;;;;;;5091227;28;20036;-76
2021/05/14 00:53:11;;;;;;;34.45;21.77;;;13.40;99.90;;;;;;5092497;28;20024;-76
2021/05/14 00:55:37;;;;;;;34.45;20.20;;;13.40;99.90;;;;;;5091267;28;20020;-75
2021/05/14 00:58:02;;;;;;;38.28;22.17;;;13.40;99.90;;;;;;5092474;28;20031;-76
2021/05/14 01:00:28;;;;;;;34.25;20.98;;;13.40;99.90;;;;;;5094813;28;20473;-76
2021/05/14 01:02:54;;;;;;;36.92;22.27;;;13.40;99.90;;;;;;5094967;28;20028;-76
2021/05/14 01:05:21;;;;;;;31.15;19.50;;;13.40;99.90;;;;;;5096158;28;20031;-76
2021/05/14 01:07:47;;;;;;;36.53;20.73;;;13.50;99.90;;;;;;5096205;28;20470;-76
2021/05/14 01:10:13;;;;;;;32.50;21.77;;;13.50;99.90;;;;;;5094803;28;20116;-76
2021/05/14 01:12:38;;;;;;;34.80;22.17;;;13.60;99.90;;;;;;5096097;28;20048;-76
2021/05/14 01:15:05;;;;;;;32.22;20.50;;;13.60;99.90;;;;;;5096211;28;20062;-76
2021/05/14 01:17:31;;;;;;;32.58;21.30;;;13.50;99.90;;;;;;5094632;28;20017;-76
2021/05/14 01:19:57;;;;;;;33.63;21.00;;;13.40;99.90;;;;;;5096039;28;20024;-76
2021/05/14 01:22:25;;;;;;;34.17;21.23;;;13.40;99.90;;;;;;5095833;28;20024;-75
2021/05/14 01:24:51;;;;;;;41.30;22.58;;;13.40;99.90;;;;;;5095820;28;20016;-75
2021/05/14 01:27:18;;;;;;;38.72;22.55;;;13.40;99.90;;;;;;5095849;28;20016;-76
2021/05/14 01:29:44;;;;;;;32.65;20.70;;;13.40;99.90;;;;;;5095800;28;20120;-76
2021/05/14 01:32:10;;;;;;;34.97;21.27;;;13.40;99.90;;;;;;5095592;28;20119;-75
2021/05/14 01:34:36;;;;;;;37.70;23.25;;;13.40;99.90;;;;;;5095709;28;20101;-76
2021/05/14 01:37:02;;;;;;;35.08;21.73;;;13.40;99.90;;;;;;5095643;28;20443;-75
2021/05/14 01:39:27;;;;;;;33.60;20.23;;;13.40;99.90;;;;;;5095588;28;20056;-75
2021/05/14 01:41:54;;;;;;;33.90;20.80;;;13.40;99.90;;;;;;5095556;28;20028;-75
2021/05/14 01:44:20;;;;;;;34.25;19.83;;;13.40;99.90;;;;;;5095546;28;20120;-76
2021/05/14 01:46:46;;;;;;;34.03;20.05;;;13.40;99.90;;;;;;5095514;28;20038;-75
2021/05/14 01:49:11;;;;;;;35.88;20.35;;;13.30;99.90;;;;;;5095394;28;20028;-75
2021/05/14 01:51:37;;;;;;;37.08;21.27;;;13.30;99.90;;;;;;5095278;28;20131;-75
2021/05/14 01:54:03;;;;;;;39.80;22.75;;;13.30;99.90;;;;;;5094027;28;20020;-75
2021/05/14 01:56:30;;;;;;;37.53;22.88;;;13.30;99.90;;;;;;5095253;28;20515;-75
2021/05/14 01:58:55;;;;;;;31.77;21.00;;;13.30;99.90;;;;;;5095213;28;20063;-75
2021/05/14 02:01:21;;;;;;;29.98;21.33;;;13.30;99.90;;;;;;5095200;28;20055;-76
2021/05/14 02:03:48;;;;;;;30.77;19.63;;;13.30;99.90;;;;;;5095058;28;20073;-75
2021/05/14 02:06:13;;;;;;;35.42;20.75;;;13.30;99.90;;;;;;5095536;28;20040;-76
2021/05/14 02:08:39;;;;;;;36.15;21.42;;;13.20;99.90;;;;;;5094967;28;20103;-75
2021/05/14 02:11:10;;;;;;;33.67;21.10;;;13.20;99.90;;;;;;5094611;28;20050;-75
2021/05/14 02:13:40;;;;;;;34.42;22.02;;;13.30;99.90;;;;;;5093641;28;20024;-76
2021/05/14 02:16:07;;;;;;;32.95;20.30;;;13.30;99.90;;;;;;5094901;28;20073;-76
2021/05/14 02:18:34;;;;;;;34.40;21.08;;;13.20;99.90;;;;;;5093465;28;20024;-75
2021/05/14 02:21:00;;;;;;;33.92;21.30;;;13.20;99.90;;;;;;5094819;28;20051;-76
2021/05/14 02:23:26;;;;;;;35.92;23.52;;;13.20;99.90;;;;;;5093391;28;20059;-76
2021/05/14 02:25:52;;;;;;;38.33;22.60;;;13.20;99.90;;;;;;5094730;28;20024;-76
2021/05/14 02:28:18;;;;;;;32.25;21.45;;;13.20;99.90;;;;;;5093333;28;20020;-76
2021/05/14 02:30:44;;;;;;;35.50;22.45;;;13.20;99.90;;;;;;5094564;28;20060;-75
2021/05/14 02:33:10;;;;;;;31.88;20.95;;;13.20;99.90;;;;;;5093240;28;20031;-75
2021/05/14 02:35:36;;;;;;;32.25;19.95;;;13.30;99.90;;;;;;5094583;28;20024;-75
2021/05/14 02:38:03;;;;;;;33.05;20.60;;;13.30;99.90;;;;;;5094459;28;20225;-75
2021/05/14 02:40:28;;;;;;;34.28;20.77;;;13.30;99.90;;;;;;5094414;28;20098;-75
2021/05/14 02:42:55;;;;;;;37.15;20.95;;;13.20;99.90;;;;;;5094377;28;20020;-75
2021/05/14 02:45:20;;;;;;;34.10;20.33;;;13.20;99.90;;;;;;5094327;28;20024;-76
2021/05/14 02:47:46;;;;;;;36.97;23.30;;;13.10;99.90;;;;;;5094192;28;20401;-76
2021/05/14 02:50:13;;;;;;;33.80;20.48;;;13.20;99.90;;;;;;5094208;28;20047;-76
2021/05/14 02:52:38;;;;;;;34.35;21.70;;;13.10;99.90;;;;;;5094162;28;20028;-76
2021/05/14 02:55:05;;;;;;;37.17;22.25;;;13.10;99.90;;;;;;5092903;28;20428;-76
2021/05/14 02:57:31;;;;;;;30.08;20.15;;;13.10;99.90;;;;;;5094077;28;20020;-76
2021/05/14 02:59:56;;;;;;;33.47;20.38;;;13.10;99.90;;;;;;5094116;28;20519;-76
2021/05/14 03:02:22;;;;;;;38.40;21.50;;;13.10;99.90;;;;;;5093935;28;20027;-76
2021/05/14 03:04:48;;;;;;;35.10;20.95;;;13.20;99.90;;;;;;5092614;28;20478;-76
2021/05/14 03:07:14;;;;;;;32.63;21.02;;;13.20;99.90;;;;;;5092623;28;20028;-76
2021/05/14 03:09:39;;;;;;;35.85;21.70;;;13.10;99.90;;;;;;5093906;28;20457;-76
2021/05/14 03:12:05;;;;;;;33.58;20.15;;;13.10;99.90;;;;;;5093724;28;20038;-76
2021/05/14 03:14:31;;;;;;;32.63;19.60;;;13.00;99.90;;;;;;5093754;28;20031;-78
2021/05/14 03:16:57;;;;;;;32.60;20.33;;;13.00;99.90;;;;;;5092388;28;20393;-78
2021/05/14 03:19:22;;;;;;;34.28;21.92;;;13.00;99.90;;;;;;5093710;28;20024;-78
2021/05/14 03:21:48;;;;;;;34.90;19.88;;;13.10;99.90;;;;;;5093234;28;20035;-78
2021/05/14 03:24:14;;;;;;;33.92;20.85;;;13.10;99.90;;;;;;5093352;28;20016;-78
2021/05/14 03:26:39;;;;;;;33.42;19.98;;;13.10;99.90;;;;;;5092335;28;20024;-78
2021/05/14 03:29:05;;;;;;;33.17;20.73;;;13.10;99.90;;;;;;5092221;28;20027;-78
2021/05/14 03:31:30;;;;;;;31.45;19.83;;;13.10;99.90;;;;;;5092105;28;20177;-78
2021/05/14 03:33:56;;;;;;;29.92;20.25;;;13.10;99.90;;;;;;5093395;28;20024;-78
2021/05/14 03:36:22;;;;;;;29.83;19.25;;;13.10;99.90;;;;;;5092037;28;20035;-78
2021/05/14 03:38:49;;;;;;;33.28;20.35;;;13.10;99.90;;;;;;5090960;28;20427;-78
2021/05/14 03:41:33;;;;;;;30.95;20.55;;;13.10;99.90;;;;;;5092036;28;20020;-78
2021/05/14 03:43:59;;;;;;;29.27;19.08;;;13.10;99.90;;;;;;5091988;28;20107;-78
2021/05/14 03:46:28;;;;;;;31.23;19.90;;;13.10;99.90;;;;;;5093244;28;20345;-77
2021/05/14 03:48:54;;;;;;;33.38;20.65;;;13.10;99.90;;;;;;5091855;28;20020;-78
2021/05/14 03:51:20;;;;;;;31.58;18.95;;;13.10;99.90;;;;;;5091811;28;20482;-78
2021/05/14 03:53:46;;;;;;;32.83;22.17;;;13.10;99.90;;;;;;5091867;28;20024;-78
2021/05/14 03:56:11;;;;;;;34.28;21.52;;;13.10;99.90;;;;;;5093157;28;20031;-78
2021/05/14 03:58:37;;;;;;;31.73;19.88;;;13.10;99.90;;;;;;5091734;28;20032;-78
2021/05/14 04:01:03;;;;;;;31.58;19.75;;;13.10;99.90;;;;;;5091796;28;20021;-77
2021/05/14 04:03:29;;;;;;;34.25;20.23;;;13.10;99.90;;;;;;5092952;28;20032;-77
2021/05/14 04:05:55;;;;;;;30.42;19.65;;;13.10;99.90;;;;;;5091661;28;20473;-78
2021/05/14 04:08:20;;;;;;;32.97;20.92;;;13.10;99.90;;;;;;5092911;28;20397;-78
2021/05/14 04:10:51;;;;;;;31.15;20.58;;;13.20;99.90;;;;;;5092877;28;20185;-78
2021/05/14 04:16:06;;;;;;;32.88;19.77;;;13.10;99.90;;;;;;5093002;28;20075;-77
2021/05/14 04:18:33;;;;;;;31.88;20.83;;;13.20;99.90;;;;;;5091545;28;20028;-77
2021/05/14 04:20:59;;;;;;;29.70;19.27;;;13.20;99.90;;;;;;5092877;28;20416;-77
2021/05/14 04:23:24;;;;;;;30.25;19.38;;;13.20;99.90;;;;;;5091496;28;20020;-78
2021/05/14 04:25:50;;;;;;;27.77;18.65;;;13.10;99.90;;;;;;5092843;28;20021;-78
2021/05/14 04:28:16;;;;;;;30.13;18.88;;;13.20;99.90;;;;;;5092772;28;20525;-77
2021/05/14 04:30:41;;;;;;;31.23;19.08;;;13.20;99.90;;;;;;5091401;28;20047;-77
2021/05/14 04:33:07;;;;;;;27.20;19.02;;;13.20;99.90;;;;;;5092960;28;20385;-77
2021/05/14 04:35:33;;;;;;;32.60;19.35;;;13.20;99.90;;;;;;5096799;28;20044;-78
2021/05/14 04:37:59;;;;;;;31.67;18.70;;;13.20;99.90;;;;;;5096736;28;20035;-78
2021/05/14 04:40:25;;;;;;;29.55;19.50;;;13.20;99.90;;;;;;5080972;28;20025;-78
2021/05/14 04:42:51;;;;;;;30.77;18.63;;;13.20;99.90;;;;;;5059826;28;20033;-78
2021/05/14 04:45:17;;;;;;;30.88;20.92;;;13.20;99.90;;;;;;5068454;28;20390;-78
2021/05/14 04:47:43;;;;;;;30.35;19.17;;;13.20;99.90;;;;;;5060691;28;20037;-78
2021/05/14 04:50:10;;;;;;;29.88;18.58;;;13.20;99.90;;;;;;5053786;28;20032;-78
2021/05/14 04:52:36;;;;;;;30.92;19.95;;;13.20;99.90;;;;;;5054262;28;20125;-78
2021/05/14 04:55:03;;;;;;;32.60;19.45;;;13.20;99.90;;;;;;5053807;28;20452;-78
2021/05/14 04:57:28;;;;;;;32.28;20.45;;;13.20;99.90;;;;;;5053887;28;20025;-78
2021/05/14 04:59:54;;;;;;;30.13;19.58;;;13.30;99.90;;;;;;5056085;28;20395;-78
2021/05/14 05:02:19;;;;;;;30.92;19.95;;;13.30;99.90;;;;;;5054655;28;20021;-78
2021/05/14 05:04:45;;;;;;;30.83;18.60;;;13.10;99.90;;;;;;5054687;28;20033;-78
2021/05/14 05:07:11;;;;;;;34.63;21.38;;;13.10;99.90;;;;;;5054628;28;20021;-78
2021/05/14 05:09:37;;;;;;;30.50;18.83;;;13.20;99.90;;;;;;5055153;28;20023;-78
2021/05/14 05:12:04;;;;;;;33.75;21.17;;;13.20;99.90;;;;;;5065995;28;20040;-78
2021/05/14 05:14:29;;;;;;;34.25;20.58;;;13.20;99.90;;;;;;5073654;28;20478;-78
2021/05/14 05:16:55;;;;;;;34.60;20.52;;;13.20;99.90;;;;;;5073686;28;20031;-78
2021/05/14 05:19:21;;;;;;;30.38;18.77;;;13.20;99.90;;;;;;5073642;28;20492;-78
2021/05/14 05:21:48;;;;;;;32.65;20.25;;;13.20;99.90;;;;;;5072325;28;20074;-78
2021/05/14 05:24:14;;;;;;;36.00;19.73;;;13.10;99.90;;;;;;5074528;28;20021;-79
2021/05/14 05:26:39;;;;;;;31.85;19.05;;;13.20;99.90;;;;;;5075611;28;20383;-79
2021/05/14 05:29:05;;;;;;;30.33;19.08;;;13.10;99.90;;;;;;5075466;28;20032;-78
2021/05/14 05:31:31;;;;;;;32.03;19.17;;;13.10;99.90;;;;;;5074142;28;20032;-79
2021/05/14 05:33:57;;;;;;;34.70;20.67;;;13.10;99.90;;;;;;5074907;28;20028;-78
2021/05/14 05:36:23;;;;;;;29.92;19.98;;;13.20;99.90;;;;;;5073242;28;20029;-79
2021/05/14 05:38:50;;;;;;;33.17;20.15;;;13.20;99.90;;;;;;5074900;28;20017;-76
2021/05/14 05:41:16;;;;;;;27.95;18.85;;;13.10;99.90;;;;;;5071811;28;20079;-76
2021/05/14 05:43:42;;;;;;;32.30;19.90;;;13.20;99.90;;;;;;5062087;28;20532;-76
2021/05/14 05:46:08;;;;;;;28.92;18.13;;;13.30;99.90;;;;;;5055476;28;20017;-76
2021/05/14 05:48:34;;;;;;;35.33;21.35;;;13.20;99.90;;;;;;5064327;28;20111;-76
2021/05/14 05:50:59;;;;;;;29.92;18.92;;;13.30;99.90;;;;;;5071816;28;20067;-75
2021/05/14 05:53:25;;;;;;;35.33;19.48;;;13.40;99.90;;;;;;5067720;28;20022;-75
2021/05/14 05:55:51;;;;;;;32.53;19.25;;;13.40;99.90;;;;;;5066654;28;20021;-75
2021/05/14 05:58:17;;;;;;;34.30;19.23;;;13.40;99.90;;;;;;5071288;28;20024;-76
2021/05/14 06:00:43;;;;;;;28.50;19.25;;;13.40;99.90;;;;;;5072327;28;20025;-76
2021/05/14 06:03:10;;;;;;;34.42;19.40;;;13.40;99.90;;;;;;5072729;28;20031;-75
2021/05/14 06:05:37;;;;;;;33.17;19.73;;;13.30;99.90;;;;;;5062628;28;20017;-75
2021/05/14 06:08:03;;;;;;;32.22;20.50;;;13.30;99.90;;;;;;5064992;28;20032;-76
2021/05/14 06:10:29;;;;;;;34.63;19.05;;;13.30;99.90;;;;;;5060816;28;20028;-75
2021/05/14 06:12:55;;;;;;;35.05;20.42;;;13.30;99.90;;;;;;5060706;28;20025;-75
2021/05/14 06:15:21;;;;;;;31.67;19.38;;;13.40;99.90;;;;;;5063362;28;20036;-77
2021/05/14 06:17:48;;;;;;;35.60;21.42;;;13.50;99.90;;;;;;5068529;28;20052;-76
2021/05/14 06:20:18;;;;;;;38.78;18.90;;;13.60;99.90;;;;;;5062313;28;20021;-76
2021/05/14 06:22:44;;;;;;;30.67;19.40;;;13.80;99.90;;;;;;5058320;28;20021;-76
2021/05/14 06:25:11;;;;;;;30.48;19.67;;;13.90;99.90;;;;;;5061155;28;20167;-76
2021/05/14 06:27:36;;;;;;;34.35;18.90;;;13.80;99.90;;;;;;5052905;28;20059;-76
2021/05/14 06:30:04;;;;;;;28.05;18.27;;;13.80;99.90;;;;;;5052683;28;20104;-76
2021/05/14 06:32:30;;;;;;;29.90;19.08;;;13.90;99.90;;;;;;5056275;28;20443;-75
2021/05/14 06:34:56;;;;;;;33.47;17.27;;;13.90;99.90;;;;;;5072818;28;20017;-75
2021/05/14 06:37:22;;;;;;;36.53;20.15;;;14.00;99.90;;;;;;5070865;28;20395;-75
2021/05/14 06:39:48;;;;;;;39.15;19.83;;;14.00;99.90;;;;;;5068403;28;20051;-76
2021/05/14 06:42:14;;;;;;;35.35;19.02;;;13.80;99.90;;;;;;5066997;28;20035;-75
2021/05/14 06:44:39;;;;;;;29.30;18.50;;;13.80;99.90;;;;;;5067882;28;20028;-76
2021/05/14 06:47:05;;;;;;;29.85;17.92;;;13.80;99.90;;;;;;5070060;28;20033;-75
2021/05/14 06:49:31;;;;;;;34.35;19.30;;;13.90;99.90;;;;;;5067921;28;20066;-75
2021/05/14 06:51:57;;;;;;;32.20;18.13;;;13.90;99.90;;;;;;5070017;28;20462;-75
2021/05/14 06:54:22;;;;;;;28.88;18.58;;;14.00;99.90;;;;;;5068442;28;20036;-76
2021/05/14 06:56:48;;;;;;;28.00;17.88;;;14.10;99.90;;;;;;5067811;28;20082;-75
2021/05/14 06:59:14;;;;;;;28.25;17.67;;;14.10;99.90;;;;;;5070437;28;20068;-75
2021/05/14 07:01:40;;;;;;;30.88;17.75;;;14.10;99.90;;;;;;5072790;28;20052;-75
2021/05/14 07:04:06;;;;;;;32.15;17.25;;;14.10;98.40;;;;;;5071544;28;20067;-75
2021/05/14 07:06:32;;;;;;;31.80;17.48;;;14.20;97.10;;;;;;5071569;28;20036;-75
2021/05/14 07:08:58;;;;;;;31.55;19.27;;;14.10;98.00;;;;;;5070301;28;20450;-75
2021/05/14 07:11:24;;;;;;;54.15;32.03;;;14.20;99.90;;;;;;5066632;28;20045;-76
2021/05/14 07:13:49;;;;;;;34.67;19.83;;;14.20;99.90;;;;;;5062020;28;20389;-75
2021/05/14 07:16:15;;;;;;;56.80;27.75;;;14.10;99.90;;;;;;5065394;28;20021;-75
2021/05/14 07:18:41;;;;;;;30.40;17.48;;;14.30;99.90;;;;;;5067710;28;20074;-76
2021/05/14 07:21:06;;;;;;;26.67;16.17;;;14.20;96.30;;;;;;5067667;28;20032;-76
2021/05/14 07:23:32;;;;;;;28.17;17.63;;;14.20;95.20;;;;;;5068649;28;20035;-76
2021/05/14 07:25:59;;;;;;;29.80;17.80;;;14.20;99.10;;;;;;5066088;28;20515;-76
2021/05/14 07:28:25;;;;;;;26.92;16.63;;;14.40;99.90;;;;;;5068772;28;20027;-76
2021/05/14 07:30:50;;;;;;;28.70;16.23;;;14.50;97.20;;;;;;5068068;28;20411;-76
2021/05/14 07:33:16;;;;;;;31.23;18.73;;;14.40;99.90;;;;;;5069751;28;20032;-76
2021/05/14 07:35:42;;;;;;;38.85;21.08;;;14.50;99.90;;;;;;5069254;28;20026;-76
2021/05/14 07:38:08;;;;;;;25.90;16.02;;;14.60;99.90;;;;;;5066052;28;20020;-76
2021/05/14 07:40:34;;;;;;;28.52;17.85;;;14.50;99.90;;;;;;5064992;28;20017;-76
2021/05/14 07:42:59;;;;;;;29.17;16.73;;;14.60;99.90;;;;;;5068333;28;20512;-76
2021/05/14 07:45:25;;;;;;;30.05;16.63;;;14.50;99.90;;;;;;5068139;28;20017;-78
2021/05/14 07:47:51;;;;;;;29.95;16.35;;;14.60;99.90;;;;;;5067856;28;20029;-78
2021/05/14 07:50:17;;;;;;;25.98;15.90;;;14.70;99.90;;;;;;5070347;28;20040;-79
2021/05/14 07:52:43;;;;;;;27.35;15.73;;;14.80;99.90;;;;;;5069085;28;20436;-77
2021/05/14 07:55:09;;;;;;;28.58;16.90;;;15.00;99.90;;;;;;5070847;28;20020;-77
2021/05/14 07:57:34;;;;;;;34.80;18.95;;;15.20;97.40;;;;;;5070452;28;20029;-76
2021/05/14 08:00:00;;;;;;;27.20;16.25;;;15.50;94.50;;;;;;5068685;28;20021;-79
2021/05/14 08:02:25;;;;;;;27.02;16.17;;;15.60;87.40;;;;;;5068579;28;20032;-78
2021/05/14 08:04:51;;;;;;;44.80;21.00;;;15.70;85.20;;;;;;5069961;28;20405;-79
2021/05/14 08:07:19;;;;;;;25.98;16.55;;;15.80;83.70;;;;;;5070667;28;20020;-79
2021/05/14 08:09:44;;;;;;;21.55;14.93;;;15.80;79.70;;;;;;5068710;28;20024;-78
2021/05/14 08:12:10;;;;;;;23.25;14.60;;;15.80;80.20;;;;;;5070555;28;20531;-78
2021/05/14 08:14:36;;;;;;;23.33;13.80;;;15.80;79.80;;;;;;5068953;28;20021;-78
2021/05/14 08:17:02;;;;;;;22.20;14.50;;;15.80;79.60;;;;;;5066945;28;20497;-78
2021/05/14 08:19:28;;;;;;;33.45;18.67;;;15.90;80.90;;;;;;5067114;28;20071;-78
2021/05/14 08:21:53;;;;;;;21.13;14.23;;;16.00;80.10;;;;;;5068577;28;20024;-78
2021/05/14 08:24:19;;;;;;;20.55;13.65;;;16.00;77.70;;;;;;5067461;28;20495;-78
2021/05/14 08:26:45;;;;;;;19.17;13.63;;;16.00;77.80;;;;;;5066444;28;20032;-78
2021/05/14 08:29:11;;;;;;;20.77;13.43;;;16.20;76.10;;;;;;5065810;28;20496;-78
2021/05/14 08:31:41;;;;;;;21.90;12.57;;;16.30;73.30;;;;;;5066547;28;20056;-78
2021/05/14 08:34:08;;;;;;;20.65;13.25;;;16.30;72.50;;;;;;5066661;28;20402;-78
2021/05/14 08:36:33;;;;;;;20.15;13.07;;;16.30;71.70;;;;;;5064305;28;20028;-78
2021/05/14 08:38:59;;;;;;;18.02;12.27;;;16.40;71.70;;;;;;5067081;28;20363;-78
2021/05/14 08:41:26;;;;;;;18.90;12.77;;;16.60;70.40;;;;;;5068233;28;20025;-78
2021/05/14 08:43:52;;;;;;;16.23;12.02;;;16.80;69.40;;;;;;5067275;28;20017;-78
2021/05/14 08:46:19;;;;;;;17.83;11.40;;;16.80;69.80;;;;;;5068966;28;20600;-79
2021/05/14 08:48:45;;;;;;;21.17;12.50;;;16.80;71.10;;;;;;5068515;28;20036;-78
2021/05/14 08:51:12;;;;;;;18.95;12.05;;;16.90;69.00;;;;;;5069989;28;20516;-79
2021/05/14 08:53:45;;;;;;;18.08;11.38;;;16.90;67.70;;;;;;5069033;28;20032;-78
2021/05/14 08:56:11;;;;;;;19.75;13.73;;;17.10;69.80;;;;;;5070358;28;20048;-78
2021/05/14 08:58:38;;;;;;;15.82;11.18;;;17.10;69.60;;;;;;5068747;28;20158;-78
2021/05/14 09:01:03;;;;;;;17.25;11.85;;;17.10;68.50;;;;;;5068700;28;20028;-78
2021/05/14 09:03:29;;;;;;;17.13;12.13;;;17.20;69.70;;;;;;5068965;28;20029;-78
2021/05/14 09:05:55;;;;;;;15.73;11.30;;;17.20;70.00;;;;;;5070682;28;20114;-78
2021/05/14 09:08:29;;;;;;;18.05;12.32;;;17.50;70.10;;;;;;5069885;28;20051;-78
2021/05/14 09:10:54;;;;;;;16.17;11.68;;;17.50;67.00;;;;;;5068936;28;20036;-78
2021/05/14 09:13:20;;;;;;;17.73;12.20;;;17.70;66.40;;;;;;5070193;28;20513;-78
2021/05/14 09:15:46;;;;;;;15.18;10.48;;;17.50;64.80;;;;;;5069885;28;20032;-78
2021/05/14 09:18:22;;;;;;;14.85;9.98;;;17.50;64.40;;;;;;5068702;28;20029;-78
2021/05/14 09:20:58;;;;;;;15.65;10.23;;;17.70;63.40;;;;;;5069648;28;20027;-79
2021/05/14 09:23:31;;;;;;;14.93;10.65;;;17.80;64.50;;;;;;5069024;28;20130;-78
2021/05/14 09:26:06;;;;;;;16.02;10.07;;;18.00;65.10;;;;;;5070354;28;20486;-78
2021/05/14 09:28:43;;;;;;;17.98;11.07;;;18.10;63.60;;;;;;5069995;28;20231;-78
2021/05/14 09:31:18;;;;;;;19.48;13.57;;;18.30;62.90;;;;;;5069218;28;20135;-78
2021/05/14 09:33:50;;;;;;;15.75;10.32;;;18.10;62.00;;;;;;5072618;28;20026;-78
2021/05/14 09:36:20;;;;;;;17.33;10.70;;;18.40;60.60;;;;;;5067810;28;20028;-78
2021/05/14 09:38:46;;;;;;;15.73;10.40;;;18.40;61.10;;;;;;5070564;28;20466;-78
2021/05/14 09:41:37;;;;;;;15.82;11.15;;;18.30;61.40;;;;;;5071525;28;20157;-78
2021/05/14 09:44:14;;;;;;;16.45;10.88;;;18.20;62.90;;;;;;5072911;28;20051;-78
2021/05/14 09:46:51;;;;;;;14.57;10.65;;;18.00;64.60;;;;;;5073140;28;20490;-78
2021/05/14 09:49:20;;;;;;;15.65;10.23;;;18.10;66.30;;;;;;5071624;28;20020;-78
2021/05/14 09:51:58;;;;;;;15.00;10.88;;;18.30;66.20;;;;;;5072308;28;20043;-79
2021/05/14 09:54:28;;;;;;;15.80;10.45;;;18.40;66.90;;;;;;5072153;28;20024;-79
2021/05/14 09:59:43;;;;;;;14.20;10.48;;;18.30;67.80;;;;;;5071848;28;20028;-78
2021/05/14 10:02:22;;;;;;;15.88;10.23;;;18.60;66.80;;;;;;5071672;28;20078;-79
2021/05/14 10:04:49;;;;;;;17.58;11.45;;;18.60;67.10;;;;;;5071981;28;20050;-78
2021/05/14 10:07:15;;;;;;;17.42;11.45;;;18.60;64.50;;;;;;5072460;28;20040;-78
2021/05/14 10:09:41;;;;;;;17.83;12.18;;;18.40;66.10;;;;;;5071792;28;20115;-78
2021/05/14 10:12:09;;;;;;;20.38;11.40;;;18.70;65.00;;;;;;5071627;28;20041;-79
2021/05/14 10:14:36;;;;;;;16.20;10.55;;;18.50;65.80;;;;;;5072517;28;20032;-79
2021/05/14 10:17:02;;;;;;;16.30;11.27;;;18.30;65.20;;;;;;5072006;28;20017;-78
2021/05/14 10:19:29;;;;;;;15.98;11.25;;;18.10;65.90;;;;;;5069472;28;20024;-78
2021/05/14 10:21:56;;;;;;;15.20;10.95;;;17.80;67.60;;;;;;5062317;28;20111;-78
2021/05/14 10:24:45;;;;;;;18.00;10.98;;;18.20;65.80;;;;;;5064163;28;20028;-79
2021/05/14 10:27:22;;;;;;;14.70;10.10;;;18.10;63.90;;;;;;5063075;28;20101;-79
2021/05/14 10:29:53;;;;;;;13.93;10.07;;;18.30;64.10;;;;;;5062858;28;20124;-79
2021/05/14 10:32:49;;;;;;;15.52;10.95;;;18.30;62.70;;;;;;5060925;28;20102;-78
2021/05/14 10:35:16;;;;;;;15.15;10.35;;;18.50;63.60;;;;;;5059870;28;20025;-78
2021/05/14 10:37:53;;;;;;;14.82;11.38;;;18.40;62.90;;;;;;5062631;28;20085;-79
2021/05/14 10:40:33;;;;;;;16.45;11.18;;;18.80;64.60;;;;;;5063512;28;20433;-78
2021/05/14 10:43:02;;;;;;;15.00;10.43;;;18.90;63.00;;;;;;5062420;28;20021;-79
2021/05/14 10:45:40;;;;;;;14.13;9.95;;;19.10;64.10;;;;;;5061863;28;20112;-79
2021/05/14 10:48:22;;;;;;;15.30;9.90;;;19.00;62.70;;;;;;5061818;28;20484;-79
2021/05/14 10:50:52;;;;;;;14.32;9.80;;;19.10;63.20;;;;;;5061996;28;20044;-79
2021/05/14 10:53:19;;;;;;;14.57;9.82;;;18.90;60.80;;;;;;5060874;28;20021;-79
2021/05/14 10:55:47;;;;;;;16.00;9.50;;;18.70;62.30;;;;;;5063013;28;20012;-79
2021/05/14 10:58:37;;;;;;;13.73;10.05;;;18.70;62.10;;;;;;5061153;28;20047;-79
2021/05/14 11:01:06;;;;;;;14.02;9.52;;;18.60;62.10;;;;;;5063585;28;20050;-79
2021/05/14 11:03:33;;;;;;;16.50;10.82;;;18.20;62.50;;;;;;5060895;28;20466;-79
2021/05/14 11:06:10;;;;;;;15.18;10.15;;;18.00;64.00;;;;;;5061917;28;20036;-79
2021/05/14 11:08:36;;;;;;;16.63;11.00;;;17.90;63.60;;;;;;5061994;28;20108;-79
2021/05/14 11:11:11;;;;;;;14.90;11.45;;;17.80;65.30;;;;;;5067675;28;20476;-79
2021/05/14 11:13:52;;;;;;;14.60;9.82;;;17.90;66.00;;;;;;5073097;28;20024;-79
2021/05/14 11:16:29;;;;;;;14.00;9.48;;;18.10;64.90;;;;;;5061850;28;20386;-79
2021/05/14 11:18:55;;;;;;;12.93;9.23;;;18.00;63.10;;;;;;5053634;28;20032;-79
2021/05/14 11:21:21;;;;;;;14.40;10.68;;;18.10;63.10;;;;;;5052268;28;20024;-78
2021/05/14 11:23:47;;;;;;;18.35;12.23;;;18.20;61.40;;;;;;5052176;28;20029;-79
2021/05/14 11:26:19;;;;;;;15.27;11.32;;;18.50;62.60;;;;;;5053596;28;20111;-79
2021/05/14 11:28:47;;;;;;;15.88;11.57;;;18.70;62.90;;;;;;5053416;28;20545;-79
2021/05/14 11:31:24;;;;;;;18.02;12.43;;;18.80;62.70;;;;;;5052030;28;20037;-79
2021/05/14 11:33:54;;;;;;;17.30;12.15;;;18.50;62.40;;;;;;5053353;28;20024;-79
2021/05/14 11:36:22;;;;;;;15.88;11.82;;;18.20;62.60;;;;;;5060440;28;20024;-78
2021/05/14 11:38:48;;;;;;;17.70;11.43;;;18.20;63.80;;;;;;5061195;28;20536;-78
2021/05/14 11:41:29;;;;;;;18.77;12.65;;;18.20;62.30;;;;;;5060734;28;20020;-78
2021/05/14 11:44:00;;;;;;;18.38;12.05;;;18.30;62.70;;;;;;5058959;28;20367;-79
2021/05/14 11:46:31;;;;;;;16.50;11.80;;;18.30;61.60;;;;;;5059924;28;20035;-79
2021/05/14 11:49:02;;;;;;;17.10;11.75;;;18.20;61.90;;;;;;5058357;28;20033;-79
2021/05/14 11:51:27;;;;;;;22.67;14.38;;;18.40;62.50;;;;;;5060874;28;20044;-79
2021/05/14 11:53:53;;;;;;;27.10;14.95;;;18.50;62.80;;;;;;5062597;28;20017;-79
2021/05/14 11:56:19;;;;;;;17.60;12.35;;;18.70;62.80;;;;;;5060958;28;20039;-79
2021/05/14 11:58:44;;;;;;;26.63;16.40;;;18.90;61.30;;;;;;5059981;28;20021;-79
2021/05/14 12:01:10;;;;;;;26.98;15.38;;;19.10;61.80;;;;;;5061301;28;20025;-79
2021/05/14 12:03:35;;;;;;;18.02;12.20;;;18.90;60.80;;;;;;5058717;28;20028;-78
2021/05/14 12:06:10;;;;;;;25.33;13.70;;;18.70;60.90;;;;;;5058919;28;20025;-79
2021/05/14 12:08:36;;;;;;;21.27;12.05;;;18.50;62.00;;;;;;5061737;28;20485;-78
2021/05/14 12:11:08;;;;;;;15.05;10.75;;;18.40;62.40;;;;;;5071123;28;20111;-78
2021/05/14 12:13:39;;;;;;;15.38;10.13;;;18.10;65.40;;;;;;5070403;28;20025;-78
2021/05/14 12:16:07;;;;;;;14.50;10.52;;;18.00;67.10;;;;;;5071853;28;20470;-79
2021/05/14 12:18:37;;;;;;;12.30;9.25;;;17.90;67.10;;;;;;5072474;28;20504;-79
2021/05/14 12:21:06;;;;;;;14.45;9.20;;;17.80;67.20;;;;;;5071050;28;20032;-79
2021/05/14 12:23:32;;;;;;;13.57;9.05;;;17.80;68.90;;;;;;5072227;28;20027;-79
2021/05/14 12:26:01;;;;;;;13.10;10.48;;;17.70;69.10;;;;;;5069094;28;20024;-79
2021/05/14 12:28:40;;;;;;;16.38;10.45;;;17.60;67.60;;;;;;5071032;28;20043;-78
2021/05/14 12:31:10;;;;;;;13.85;10.35;;;17.60;68.40;;;;;;5065869;28;20432;-78
2021/05/14 12:33:59;;;;;;;16.23;9.88;;;17.40;66.30;;;;;;5071309;28;20064;-79
2021/05/14 12:36:27;;;;;;;13.35;9.57;;;17.50;68.40;;;;;;5071163;28;20474;-79